Date,TemperatureHighF,TemperatureAvgF,TemperatureLowF,DewpointHighF,DewpointAvgF,DewpointLowF,HumidityHigh,HumidityAvg,HumidityLow,PressureMaxIn,PressureMinIn,WindSpeedMaxMPH,WindSpeedAvgMPH,GustSpeedMaxMPH,PrecipitationSumIn
2013-1-1,20,4,-13,16,0,-18,92,82,76,30.39,30.12,15,2,15,0.00
2013-1-2,23,19,16,18,15,13,94,85,80,30.16,30.01,17,3,19,0.00
2013-1-3,18,12,8,13,7,2,92,81,75,30.36,30.16,16,5,19,0.00
2013-1-4,27,18,9,18,13,5,85,79,70,30.19,30.09,14,3,17,0.00
2013-1-5,22,14,7,15,10,3,87,82,73,30.15,29.93,11,1,13,0.00
2013-1-6,20,14,9,15,10,5,95,82,76,30.29,30.05,21,3,23,0.00
2013-1-7,35,28,20,27,22,15,85,79,71,30.04,29.94,25,5,30,0.00
2013-1-8,34,26,14,28,21,10,88,83,75,30.02,29.79,17,4,20,0.03
2013-1-9,34,30,23,28,23,18,84,77,69,30.40,29.95,19,5,29,0.00
2013-1-10,40,35,28,32,27,23,90,74,57,30.32,29.74,23,6,23,0.20
2013-1-11,40,37,35,38,34,32,92,92,90,29.75,29.38,19,6,22,0.05
2013-1-12,36,17,8,34,12,2,91,79,72,30.06,29.39,26,10,29,0.00
2013-1-13,8,6,4,2,0,-1,89,79,74,30.34,30.19,12,2,14,0.00
2013-1-14,11,7,2,7,2,-1,92,81,73,30.51,30.34,12,1,13,0.00
2013-1-15,29,18,7,20,12,4,88,78,66,30.36,29.87,21,4,25,0.00
2013-1-16,36,26,9,32,19,-1,88,76,53,30.30,29.70,24,6,28,0.00
2013-1-17,19,12,4,12,4,-3,80,70,61,30.47,30.29,14,2,15,0.00
2013-1-18,40,29,17,32,24,12,87,81,72,30.36,29.78,19,4,20,0.00
2013-1-19,39,20,2,32,14,-4,90,78,63,30.32,29.71,32,6,38,0.00
2013-1-20,7,2,-3,2,-5,-10,81,72,64,30.50,30.32,20,5,27,0.00
2013-1-21,-3,-7,-11,-10,-14,-18,81,72,65,30.48,30.40,18,4,22,0.00
2013-1-22,6,-4,-12,-1,-10,-17,80,74,67,30.54,30.35,9,1,11,0.00
2013-1-23,14,7,-4,9,-1,-14,92,70,55,30.72,30.25,30,5,30,0.00
2013-1-24,15,3,-6,4,-7,-16,76,63,57,30.77,30.24,21,5,24,0.00
2013-1-25,19,12,2,13,4,-4,80,72,60,30.40,30.03,23,6,26,0.00
2013-1-26,24,12,-2,14,5,-6,92,71,57,30.43,30.17,15,4,17,0.00
2013-1-27,33,30,23,29,24,14,91,78,65,30.17,29.83,17,4,20,0.01
2013-1-28,36,33,31,33,30,28,92,90,86,29.92,29.66,14,2,14,0.14
2013-1-29,36,32,27,31,28,22,92,85,79,29.79,29.56,18,4,26,0.02
2013-1-30,27,17,7,22,11,2,82,78,72,29.85,29.71,28,8,28,0.00
2013-1-31,7,0,-8,2,-7,-14,79,74,68,30.40,29.84,22,8,26,0.00
2013-2-1,5,-4,-13,1,-10,-18,84,75,63,30.43,30.16,14,2,14,0.01
2013-2-2,10,6,1,6,1,-3,85,79,68,30.29,30.06,11,2,12,0.00
2013-2-3,14,10,4,8,5,0,90,80,69,30.18,30.04,14,2,19,0.00
2013-2-4,16,11,1,12,4,-3,92,74,59,30.16,29.80,15,2,18,0.00
2013-2-5,30,21,2,25,16,-2,88,82,68,30.14,29.72,18,4,20,0.00
2013-2-6,26,16,1,21,12,-2,96,84,78,30.16,29.98,12,2,14,0.00
2013-2-7,28,25,21,23,21,17,88,84,79,30.31,30.05,19,6,20,0.00
2013-2-8,27,23,12,22,18,9,87,82,76,30.42,30.25,18,4,22,0.00
2013-2-9,33,29,26,29,25,22,92,85,83,30.25,29.94,23,8,27,0.00
2013-2-10,33,31,29,31,28,25,92,89,86,29.94,29.31,18,4,19,0.00
2013-2-11,29,24,12,27,19,8,91,82,76,30.10,29.40,25,3,29,0.00
2013-2-12,33,22,12,25,18,8,88,82,71,30.10,29.86,18,3,20,0.00
2013-2-13,37,28,18,32,24,15,92,84,76,29.86,29.60,14,2,14,0.18
2013-2-14,33,24,9,30,18,1,91,76,50,30.25,29.63,20,3,22,0.00
2013-2-15,16,9,3,6,3,-1,92,76,64,30.40,30.25,17,2,18,0.00
2013-2-16,6,3,1,2,0,-3,86,85,83,30.36,30.29,5,0,6,0.00
2013-2-17,31,30,6,25,24,2,86,79,78,30.30,29.64,19,12,22,0.00
2013-2-18,34,22,6,30,17,1,87,80,74,29.90,29.55,23,7,28,0.00
2013-2-19,6,1,-4,1,-6,-10,82,73,63,30.49,29.90,24,7,24,0.00
2013-2-20,13,2,-12,4,-4,-16,96,73,60,30.58,30.49,8,1,10,0.00
2013-2-21,22,13,-2,16,6,-5,85,73,62,30.54,30.16,13,2,15,0.00
2013-2-22,28,23,20,22,19,16,92,84,75,30.16,29.92,15,3,17,0.06
2013-2-23,28,21,7,23,16,3,87,83,73,30.02,29.90,10,2,11,0.01
2013-2-24,33,15,-1,22,10,-5,87,79,63,30.18,30.02,6,0,7,0.05
2013-2-25,34,24,13,26,19,10,92,80,66,30.17,30.08,9,0,9,0.12
2013-2-26,35,23,9,28,19,5,88,82,74,30.11,29.95,19,4,19,0.04
2013-2-27,40,32,27,27,24,22,83,75,57,30.09,29.92,24,5,25,0.03
2013-2-28,31,28,23,24,21,16,82,74,67,30.27,30.08,16,4,16,0.00
2013-3-1,28,24,12,19,16,8,83,73,64,30.41,30.27,16,3,17,0.00
2013-3-2,12,6,0,9,3,-3,86,84,83,30.42,30.39,2,0,3,0.00
2013-3-3,32,28,2,16,15,-1,85,57,48,30.42,30.00,16,5,16,0.00
2013-3-4,28,25,23,21,19,15,87,78,59,30.07,29.97,20,6,23,0.00
2013-3-5,30,26,22,25,22,18,92,85,78,30.36,30.01,15,3,17,0.10
2013-3-6,28,22,6,20,17,2,86,80,71,30.47,30.36,15,2,16,0.05
2013-3-7,32,18,0,21,12,-3,87,77,62,30.45,30.33,16,4,18,0.01
2013-3-8,39,29,16,30,23,13,87,80,68,30.38,30.11,15,5,17,0.10
2013-3-9,38,36,34,35,33,29,92,89,80,30.12,29.71,16,5,18,0.44
2013-3-10,34,32,29,32,27,23,91,81,77,30.00,29.82,26,10,28,0.00
2013-3-11,31,27,22,23,21,16,81,78,70,29.92,29.80,18,6,24,0.00
2013-3-12,28,24,20,20,17,13,81,74,60,30.27,29.88,23,5,26,0.00
2013-3-13,29,20,10,20,14,6,85,78,65,30.45,30.27,14,2,16,0.00
2013-3-14,41,31,24,29,24,19,87,76,60,30.30,30.05,13,3,15,0.05
2013-3-15,34,31,24,30,27,21,88,86,83,30.06,29.85,13,3,17,0.07
2013-3-16,24,20,10,21,14,4,87,77,64,30.32,29.94,15,5,17,0.00
2013-3-17,28,18,5,22,9,0,78,68,57,30.34,29.89,24,7,25,0.00
2013-3-18,31,23,14,28,18,8,89,80,72,29.89,29.64,24,11,29,0.00
2013-3-19,20,14,6,8,3,0,78,62,49,30.30,29.85,21,7,22,0.00
2013-3-20,19,12,5,6,2,-2,74,64,55,30.33,30.21,21,6,26,0.00
2013-3-21,25,13,-3,11,4,-7,85,68,51,30.23,30.12,11,1,12,0.04
2013-3-22,36,19,1,18,10,-3,85,69,44,30.18,30.11,9,1,11,0.03
2013-3-23,37,25,11,22,16,7,86,71,48,30.22,30.14,8,1,10,0.00
2013-3-24,33,28,25,24,22,20,87,78,63,30.16,30.04,17,4,19,0.02
2013-3-26,36,28,21,24,21,17,85,73,59,30.36,30.04,17,1,18,0.00
2013-3-27,41,28,12,25,17,9,88,67,39,30.41,30.35,10,1,11,0.00
2013-3-28,45,32,17,30,23,13,92,71,50,30.39,30.30,13,3,14,0.00
2013-3-29,51,41,32,39,33,26,85,74,60,30.32,30.06,16,4,18,0.00
2013-3-30,48,42,34,41,36,30,87,80,73,30.06,29.88,16,4,21,0.17
2013-3-31,38,33,23,31,24,14,89,72,50,30.16,29.83,24,7,29,0.00
2013-4-1,32,24,17,19,15,12,78,68,53,30.33,30.16,18,6,22,0.00
2013-4-2,35,27,18,18,17,14,83,67,45,30.41,30.32,16,3,18,0.00
2013-4-3,48,34,18,35,25,14,88,70,47,30.44,30.07,26,6,29,0.00
2013-4-4,47,41,32,34,30,24,82,66,47,30.20,30.03,22,6,26,0.00
2013-4-5,42,34,26,32,26,20,92,74,45,30.27,29.89,20,5,22,0.03
2013-4-6,54,42,36,44,35,31,87,77,63,29.89,29.53,24,7,24,0.16
2013-4-7,49,41,34,40,34,30,88,79,67,29.96,29.77,13,2,15,0.18
2013-4-8,45,42,40,40,38,35,92,88,83,30.07,29.69,17,4,18,0.41
2013-4-9,42,38,32,35,30,27,85,75,60,30.21,30.00,32,9,33,0.13
2013-4-10,38,34,31,30,27,24,88,76,62,30.22,29.92,18,6,26,0.06
2013-4-11,35,33,29,31,28,26,90,85,70,29.94,29.71,19,6,24,0.28
2013-4-12,36,31,28,29,26,24,92,83,73,29.89,29.73,13,2,16,0.16
2013-4-13,38,32,28,29,26,24,89,78,60,29.99,29.87,12,2,13,0.09
2013-4-14,37,33,30,34,28,24,90,82,74,29.97,29.49,21,7,23,0.18
2013-4-15,40,36,32,32,29,26,84,77,70,30.01,29.53,31,10,32,0.01
2013-4-16,42,36,32,30,28,26,80,72,58,30.36,30.00,15,4,20,0.00
2013-4-17,40,36,34,34,30,28,92,77,71,30.35,29.93,17,4,20,0.06
2013-4-18,34,32,31,31,29,28,95,89,86,29.99,29.58,29,5,29,0.08
2013-4-19,38,32,29,28,26,20,91,78,56,30.04,29.56,29,5,32,0.30
2013-4-20,41,31,17,23,19,14,86,62,35,30.34,30.05,10,1,12,0.11
2013-4-21,50,40,32,44,35,20,89,81,58,30.34,30.02,26,7,26,0.17
2013-4-22,42,36,32,33,30,29,90,80,63,30.25,30.15,20,4,26,0.01
2013-4-23,40,33,26,29,25,21,89,72,47,30.22,30.11,17,2,19,0.22
2013-4-24,50,37,27,34,29,22,88,74,43,30.12,29.94,30,6,35,0.04
2013-4-25,53,41,31,34,31,26,87,69,46,30.24,30.02,16,4,20,0.00
2013-4-26,71,57,45,47,41,33,76,56,32,30.13,29.95,26,5,26,0.01
2013-4-27,76,58,35,53,39,31,85,56,24,30.13,29.86,14,2,18,0.00
2013-4-28,59,54,51,47,46,44,78,72,64,29.87,29.82,15,3,18,0.00
2013-5-4,44,43,42,39,38,37,84,83,81,30.21,30.19,12,5,13,0.05
2013-5-5,59,53,44,47,45,37,82,76,67,30.21,30.09,11,1,13,0.00
2013-5-6,75,60,44,52,47,41,89,66,40,30.13,29.99,11,1,11,0.00
2013-5-7,79,64,47,55,49,44,89,61,33,30.05,29.92,14,2,18,0.00
2013-5-8,76,64,56,56,52,46,87,66,39,29.99,29.92,19,2,19,0.20
2013-5-9,61,54,46,54,46,31,87,77,56,30.12,29.93,23,7,27,0.04
2013-5-10,47,40,37,31,29,28,73,64,52,30.14,30.11,17,6,22,0.00
2013-5-12,59,53,40,35,24,16,68,36,20,30.17,30.11,19,3,20,0.00
2013-5-13,76,57,37,50,37,25,77,49,33,30.12,29.62,31,6,33,0.00
2013-5-14,96,73,49,56,47,33,78,45,16,29.67,29.42,33,4,35,0.00
2013-5-15,81,67,51,52,47,43,74,51,30,29.89,29.67,22,4,23,0.00
2013-5-16,82,69,50,51,45,35,83,46,26,29.89,29.80,16,3,17,0.00
2013-5-17,66,59,56,54,50,38,89,76,38,29.95,29.85,19,4,23,0.19
2013-5-18,82,67,57,67,60,53,92,79,58,29.97,29.74,22,5,23,1.18
2013-5-19,79,69,64,67,63,61,91,81,66,29.75,29.51,27,4,32,1.09
2013-5-20,72,66,60,62,59,57,92,80,67,29.54,29.46,20,5,25,0.17
2013-5-21,60,55,47,57,52,44,92,89,86,29.71,29.48,14,3,15,0.10
2013-5-22,54,48,44,48,45,42,91,86,70,30.02,29.70,24,7,25,0.07
2013-5-23,63,53,44,43,38,34,82,58,34,30.34,30.02,18,5,20,0.00
2013-5-24,68,56,40,51,42,33,85,61,38,30.38,30.15,19,3,24,0.23
2013-5-25,61,56,53,51,48,45,86,76,68,30.23,30.18,26,8,26,0.01
2013-5-26,57,55,52,49,45,42,75,69,60,30.20,30.01,23,7,29,0.00
2013-5-27,63,58,54,54,51,48,88,79,70,30.03,29.81,23,4,26,0.00
2013-5-28,61,57,53,55,53,50,90,85,81,29.81,29.70,11,1,13,0.03
2013-5-29,75,66,54,67,60,50,92,81,72,29.81,29.59,20,4,22,0.11
2013-5-30,75,69,64,64,62,60,89,80,67,29.63,29.47,28,8,32,0.02
2013-5-31,75,67,61,61,56,52,88,68,50,29.52,29.46,36,7,36,0.08
2013-6-1,71,60,52,59,52,43,88,75,61,29.95,29.51,23,4,27,0.02
2013-6-2,68,56,46,50,43,40,83,64,41,30.09,29.95,15,3,19,0.00
2013-6-3,70,60,44,50,46,40,90,62,38,30.06,29.90,12,2,16,0.00
2013-6-4,63,59,56,54,50,47,84,73,57,30.05,29.93,22,6,26,0.04
2013-6-5,65,58,54,56,52,49,87,81,71,30.03,29.93,14,4,17,0.00
2013-6-6,58,54,50,51,49,47,89,84,77,30.04,29.97,12,3,14,0.00
2013-6-7,64,58,53,53,51,48,86,78,67,30.06,29.90,7,0,10,0.00
2013-6-8,68,59,52,56,52,48,89,79,64,29.91,29.88,13,1,14,0.00
2013-6-9,68,61,57,60,56,53,89,84,65,29.88,29.74,23,4,25,0.29
2013-6-10,77,66,60,64,60,56,92,81,62,29.85,29.78,11,1,11,0.01
2013-6-11,77,66,56,67,61,53,92,83,70,29.88,29.77,10,1,12,0.00
2013-6-12,73,65,58,63,58,54,91,80,66,29.93,29.75,17,3,17,0.93
2013-6-13,77,68,57,60,55,50,83,66,49,30.09,29.92,12,2,14,0.00
2013-6-14,80,70,58,64,59,51,84,69,58,30.05,29.83,25,5,25,0.00
2013-6-15,84,72,62,70,64,58,89,77,59,29.89,29.81,23,1,26,0.38
2013-6-16,87,70,54,63,56,47,91,64,27,29.91,29.81,18,2,26,0.03
2013-6-17,81,70,57,62,57,54,90,66,44,29.99,29.84,21,2,21,0.00
2013-6-18,79,66,55,62,55,46,77,68,50,30.07,29.98,14,2,15,0.00
2013-6-19,86,74,61,66,60,55,81,64,45,30.03,29.89,15,3,17,0.00
2013-6-20,91,81,71,70,65,61,74,60,44,29.94,29.79,22,5,24,0.00
2013-6-21,81,72,62,68,64,58,88,77,60,30.03,29.68,33,4,36,2.04
2013-6-22,79,71,65,69,65,61,90,81,70,29.96,29.79,23,2,23,0.57
2013-6-23,83,75,65,69,67,60,91,77,59,29.84,29.63,29,6,40,2.06
2013-6-24,84,73,62,71,66,59,91,79,61,29.87,29.76,14,2,21,0.00
2013-6-25,86,76,66,74,68,61,87,76,64,29.79,29.65,19,2,19,0.00
2013-6-26,87,78,70,74,70,65,91,76,55,29.77,29.60,17,2,21,0.00
2013-6-27,85,76,68,66,62,55,89,64,36,29.79,29.75,20,3,24,0.00
2013-6-28,78,71,66,64,60,57,85,69,55,29.79,29.73,25,4,32,0.11
2013-6-29,76,69,63,62,59,53,88,71,54,29.97,29.73,19,4,22,0.07
2013-6-30,81,69,58,62,55,52,85,63,39,30.09,29.97,14,2,17,0.00
2013-7-1,83,72,58,64,58,54,91,66,40,30.17,30.09,13,1,13,0.00
2013-7-2,82,70,58,61,56,49,88,63,40,30.14,30.02,10,1,11,0.00
2013-7-3,87,73,58,66,58,52,92,63,35,30.04,29.91,10,1,11,0.00
2013-7-4,89,77,63,67,60,56,80,58,34,29.92,29.80,17,3,20,0.00
2013-7-5,89,79,70,69,63,57,68,58,47,29.84,29.73,18,5,27,0.00
2013-7-6,88,79,71,74,67,61,71,66,56,29.82,29.73,13,2,15,0.00
2013-7-7,90,80,71,76,70,66,88,70,57,29.84,29.76,12,2,15,0.12
2013-7-8,91,75,65,73,67,62,91,78,52,29.97,29.84,11,1,11,0.00
2013-7-9,85,77,68,72,68,63,90,76,64,29.91,29.67,25,3,35,0.67
2013-7-10,80,71,60,66,59,54,85,67,46,30.03,29.89,17,2,19,0.00
2013-7-11,86,73,57,66,60,54,92,65,40,30.08,29.92,16,2,18,0.00
2013-7-12,89,78,68,67,63,58,70,59,45,29.95,29.82,22,7,28,0.00
2013-7-13,77,71,67,66,64,59,89,78,62,30.03,29.84,21,6,24,1.33
2013-7-14,86,76,69,71,66,60,83,72,55,30.14,30.00,16,3,18,0.01
2013-7-15,88,79,67,73,68,62,85,70,53,30.19,30.10,14,2,15,0.00
2013-7-16,92,83,73,76,72,68,86,70,52,30.16,30.10,17,3,17,0.00
2013-7-17,94,83,71,77,71,66,85,69,51,30.19,30.05,14,2,17,0.00
2013-7-18,93,84,74,75,72,68,82,68,51,30.05,29.70,21,6,25,0.00
2013-7-19,83,78,67,70,65,59,82,65,47,29.88,29.67,18,3,22,0.01
2013-7-20,80,70,62,66,61,57,89,73,55,29.93,29.84,12,1,12,0.02
2013-7-21,84,71,60,70,62,53,86,74,61,29.92,29.74,16,2,16,0.09
2013-7-22,84,74,65,72,65,57,87,72,54,29.83,29.64,16,3,20,0.00
2013-7-23,75,67,57,58,56,52,87,67,47,30.00,29.83,17,2,17,0.00
2013-7-24,82,69,57,64,58,52,87,69,43,30.06,29.94,10,1,12,0.01
2013-7-25,82,72,60,68,62,55,87,71,53,29.95,29.87,17,2,18,0.00
2013-7-26,68,63,54,62,55,47,86,74,61,30.08,29.88,19,4,24,0.01
2013-7-27,64,58,50,50,48,45,85,70,55,30.08,29.94,23,3,28,0.00
2013-7-28,74,60,47,56,50,43,85,70,50,30.06,29.96,14,2,17,0.00
2013-7-29,79,66,49,61,55,46,90,71,47,30.11,30.04,13,1,14,0.01
2013-7-30,73,66,62,64,61,58,90,83,72,30.07,30.01,9,0,9,0.21
2013-7-31,80,68,58,67,59,53,91,77,49,30.06,29.97,17,1,19,0.01
2013-8-1,83,69,51,66,57,48,92,69,44,30.02,29.83,12,1,12,0.00
2013-8-2,76,67,56,62,56,52,88,69,45,30.03,29.82,14,1,14,0.00
2013-8-3,78,65,52,59,53,49,90,67,39,30.19,30.03,13,1,14,0.00
2013-8-4,75,63,50,61,54,47,90,76,56,30.22,29.97,11,1,11,0.00
2013-8-5,80,67,61,69,61,56,92,82,66,30.01,29.79,18,2,20,0.76
2013-8-6,85,70,60,70,62,57,88,77,57,29.77,29.63,23,3,28,0.10
2013-8-7,75,65,58,61,56,52,92,73,47,30.01,29.76,16,2,18,0.00
2013-8-8,75,64,54,62,57,50,91,80,61,30.04,29.96,10,1,12,0.02
2013-8-9,74,65,55,61,55,52,91,72,50,30.11,29.98,15,2,18,0.00
2013-8-10,76,67,59,60,56,52,86,69,50,30.17,30.05,9,1,11,0.00
2013-8-11,80,70,64,68,62,57,87,76,63,30.07,29.96,7,0,7,0.00
2013-8-12,79,68,58,61,58,55,90,71,47,30.04,29.98,16,2,17,0.00
2013-8-13,75,65,54,58,53,48,89,68,40,30.18,30.04,14,1,15,0.00
2013-8-14,78,64,50,60,53,47,89,70,42,30.19,30.08,11,1,13,0.00
2013-8-15,79,65,53,62,56,48,87,74,51,30.11,30.05,11,1,13,0.00
2013-8-16,80,67,54,63,57,51,89,72,46,30.17,30.11,12,1,14,0.00
2013-8-17,82,68,55,62,57,51,89,70,48,30.17,30.07,19,2,19,0.00
2013-8-18,82,70,58,63,58,52,83,67,48,30.10,29.96,20,3,26,0.00
2013-8-19,87,75,66,72,65,58,80,71,58,29.99,29.84,18,4,18,0.00
2013-8-20,88,78,68,75,69,63,85,75,64,29.87,29.80,17,2,23,0.00
2013-8-21,86,78,71,76,70,62,88,77,64,29.96,29.78,11,1,12,0.00
2013-8-22,84,74,62,65,56,51,81,57,35,30.09,29.96,16,2,19,0.00
2013-8-23,86,73,58,70,62,51,86,69,54,30.11,29.99,18,3,18,0.00
2013-8-24,88,79,71,74,70,65,82,73,60,30.00,29.87,27,7,30,0.00
2013-8-25,84,78,75,74,70,69,81,76,71,29.95,29.88,22,6,22,0.00
2013-8-26,94,87,74,79,76,71,88,70,59,29.92,29.77,15,2,16,0.00
2013-8-27,91,82,75,78,74,70,85,76,65,29.87,29.73,10,1,13,0.00
2013-8-28,89,78,69,76,71,65,90,79,63,29.96,29.86,10,0,11,0.00
2013-8-29,92,82,75,77,72,68,88,74,56,29.95,29.79,15,2,15,0.00
2013-8-30,82,75,66,70,66,62,87,75,63,29.89,29.77,17,3,19,0.00
2013-8-31,89,73,59,72,64,56,91,76,55,29.86,29.68,13,1,22,0.10
2013-9-1,72,67,59,63,59,53,87,76,66,29.97,29.70,18,2,20,0.00
2013-9-2,65,58,50,55,51,47,90,79,66,30.09,29.97,11,1,12,0.00
2013-9-3,79,62,46,63,54,43,91,77,51,30.10,29.98,10,1,12,0.00
2013-9-4,84,70,56,70,61,53,91,74,53,30.12,29.99,11,1,12,0.00
2013-9-5,84,72,60,70,62,55,85,72,57,30.18,30.05,15,2,15,0.00
2013-9-6,90,78,70,71,68,66,88,72,50,30.06,29.81,20,3,23,0.02
2013-9-7,91,79,66,72,68,62,90,70,48,29.96,29.81,14,3,16,0.00
2013-9-8,76,69,65,66,61,56,81,75,70,30.00,29.84,17,2,17,0.00
2013-9-9,93,77,68,76,69,64,89,76,50,29.84,29.58,20,3,20,0.05
2013-9-10,82,72,65,68,64,60,88,77,55,29.95,29.73,15,1,17,0.01
2013-9-11,82,71,60,64,58,52,90,67,37,30.05,29.95,17,1,18,0.00
2013-9-12,73,63,50,56,50,45,86,64,41,30.22,30.05,18,2,21,0.00
2013-9-13,69,56,42,52,46,39,90,70,45,30.28,30.08,11,1,11,0.00
2013-9-14,66,54,48,55,48,43,88,80,58,30.09,29.87,14,2,16,0.29
2013-9-15,66,58,50,55,53,45,92,81,67,30.32,29.86,15,3,19,0.20
2013-9-16,66,53,41,51,45,38,90,75,54,30.41,30.24,13,1,13,0.00
2013-9-17,66,58,51,56,51,45,89,78,66,30.24,29.92,24,7,24,0.00
2013-9-18,78,68,60,70,64,56,92,86,75,29.92,29.65,19,4,21,0.03
2013-9-19,75,72,70,69,67,66,88,85,80,29.68,29.58,16,1,25,0.00
2013-9-20,58,53,50,50,47,45,84,81,74,29.94,29.89,12,1,20,0.00
2013-9-21,63,52,43,52,45,40,92,78,58,30.00,29.91,11,0,12,0.00
2013-9-22,75,61,47,58,51,43,89,73,54,29.95,29.81,23,6,23,0.00
2013-9-23,74,64,56,57,53,49,79,68,51,29.90,29.82,24,8,27,0.00
2013-9-24,75,61,51,59,52,47,85,73,51,29.94,29.88,15,2,20,0.00
2013-9-25,74,68,59,56,54,51,75,61,50,29.92,29.82,11,4,18,0.00
2013-9-26,81,71,58,63,60,51,79,68,52,29.88,29.76,19,7,30,0.00
2013-9-27,84,73,67,67,62,59,81,69,51,29.86,29.73,30,7,33,0.02
2013-9-28,73,60,47,62,53,42,88,78,68,29.92,29.58,19,4,23,0.22
2013-9-29,77,60,43,53,46,39,86,64,35,29.95,29.75,21,3,21,0.01
2013-9-30,79,66,56,57,52,47,74,60,43,29.76,29.54,19,4,23,0.00
2013-10-1,73,64,45,54,46,36,82,57,27,29.98,29.55,16,3,19,0.00
2013-10-2,76,58,41,54,44,37,91,66,29,30.03,29.81,24,4,24,0.92
2013-10-3,58,56,55,55,53,51,92,89,86,29.93,29.82,15,3,17,0.16
2013-10-4,58,56,54,55,52,50,92,87,83,29.97,29.80,25,5,25,0.15
2013-10-5,59,53,40,56,48,37,90,83,67,29.84,29.73,15,2,16,0.03
2013-10-6,52,45,40,49,42,37,92,89,85,29.87,29.69,15,2,20,0.07
2013-10-7,66,51,39,48,42,37,92,75,42,29.98,29.84,11,0,11,0.00
2013-10-8,77,62,50,52,47,44,80,60,38,29.96,29.77,31,5,31,0.00
2013-10-9,76,65,57,55,51,48,74,62,43,30.00,29.88,22,5,22,0.00
2013-10-10,77,64,54,58,52,46,76,64,45,30.00,29.83,21,7,27,0.00
2013-10-11,73,65,56,61,55,49,83,70,57,29.83,29.56,34,12,37,0.10
2013-10-12,56,49,41,49,42,36,86,77,67,30.19,29.67,23,4,25,0.00
2013-10-13,59,45,33,44,36,30,90,72,40,30.45,30.19,10,0,12,0.00
2013-10-14,54,48,38,46,40,34,89,76,61,30.41,29.92,18,2,20,0.58
2013-10-15,53,50,45,50,46,42,92,89,86,29.93,29.65,22,5,22,0.59
2013-10-16,53,45,37,42,39,33,89,79,54,29.97,29.85,16,2,19,0.01
2013-10-17,54,45,37,44,39,34,88,81,63,29.89,29.79,17,1,21,0.19
2013-10-18,52,43,38,38,35,32,88,74,49,30.00,29.85,15,2,17,0.02
2013-10-19,45,38,30,39,34,27,92,83,76,29.85,29.71,17,2,17,0.04
2013-10-20,46,37,29,39,32,26,88,83,73,29.93,29.63,19,3,22,0.03
2013-10-21,39,34,25,28,25,21,86,69,56,30.00,29.92,20,3,22,0.00
2013-10-22,40,32,22,31,26,19,88,79,66,30.08,29.99,10,0,11,0.00
2013-10-23,37,34,30,30,26,21,85,73,57,30.15,30.04,16,1,19,0.00
2013-10-24,43,37,31,32,28,22,88,71,60,30.35,30.15,17,2,17,0.00
2013-10-25,59,43,25,44,34,21,87,72,55,30.35,29.80,28,5,28,0.00
2013-10-26,50,42,32,41,31,26,79,67,55,30.12,29.82,19,3,19,0.00
2013-10-27,56,38,29,37,29,24,83,72,47,30.16,29.86,20,4,22,0.00
2013-10-28,42,36,30,30,25,21,79,66,47,30.45,30.16,16,5,18,0.00
2013-10-29,39,36,31,34,30,25,87,77,73,30.44,30.11,12,2,12,0.07
2013-10-30,48,44,38,45,41,34,90,89,87,30.11,29.67,14,0,14,0.06
2013-10-31,48,42,39,45,38,36,91,88,82,29.68,29.42,12,1,14,0.02
2013-11-1,51,43,36,40,36,32,87,79,63,29.88,29.44,13,2,14,0.00
2013-11-2,49,39,30,37,32,26,87,77,61,30.11,29.88,15,1,15,0.00
2013-11-3,55,45,33,38,34,29,87,68,47,30.12,29.85,33,9,35,0.00
2013-11-4,49,44,32,42,36,29,87,76,63,30.16,29.80,22,5,29,0.02
2013-11-5,43,33,26,33,28,23,89,82,57,30.27,30.07,13,1,15,0.00
2013-11-6,36,31,26,30,26,21,88,82,74,30.20,30.07,12,1,13,0.09
2013-11-7,35,27,19,30,23,15,88,84,79,30.29,30.20,11,1,12,0.07
2013-11-8,44,35,22,37,28,19,88,78,61,30.24,29.62,27,6,28,0.12
2013-11-9,44,40,35,38,33,27,83,75,61,30.24,29.66,22,6,31,0.00
2013-11-10,40,37,32,32,30,26,80,76,69,30.36,30.11,16,3,18,0.00
2013-11-11,37,24,15,31,14,8,79,66,52,30.79,30.15,21,7,24,0.00
2013-11-12,28,19,10,16,11,5,83,71,52,30.85,30.49,17,3,17,0.00
2013-11-13,52,36,22,36,26,15,80,68,53,30.49,29.89,24,6,26,0.00
2013-11-14,54,40,31,41,33,26,86,77,61,29.90,29.76,14,2,14,0.00
2013-11-15,55,41,29,41,34,25,89,77,57,29.86,29.62,20,4,20,0.00
2013-11-16,48,44,41,46,40,35,92,85,73,29.62,29.22,17,5,19,0.09
2013-11-17,43,39,31,39,34,24,89,81,76,29.87,29.30,23,6,27,0.01
2013-11-18,34,29,21,25,22,17,84,75,64,30.29,29.87,26,4,30,0.00
2013-11-19,47,36,21,33,27,17,92,70,55,30.29,29.90,31,10,31,0.00
2013-11-20,45,43,38,34,32,28,82,67,55,30.04,29.87,28,9,33,0.00
2013-11-21,38,30,22,34,24,15,86,78,70,30.58,30.04,20,6,23,0.00
2013-11-22,35,22,11,17,11,4,82,64,33,30.72,30.50,21,5,25,0.00
2013-11-23,17,10,5,4,2,0,80,71,52,30.91,30.72,20,3,23,0.00
2013-11-24,33,20,4,18,11,0,91,68,52,30.79,30.03,29,8,33,0.00
2013-11-25,38,33,28,29,25,18,82,71,59,30.13,29.94,24,7,28,0.00
2013-11-26,30,20,12,22,9,5,76,62,51,30.45,30.12,24,7,29,0.00
2013-11-27,23,16,5,13,8,0,92,72,59,30.46,30.12,17,4,18,0.00
2013-11-28,26,20,8,17,12,4,83,72,65,30.57,30.12,17,2,20,0.00
2013-11-29,33,22,6,21,15,2,92,74,59,30.57,30.16,24,5,25,0.00
2013-11-30,31,27,22,24,21,18,85,80,75,30.21,30.07,12,1,14,0.00
2013-12-1,33,25,16,26,20,12,92,81,74,30.23,29.95,9,0,10,0.00
2013-12-2,39,34,29,32,29,24,87,83,75,29.95,29.58,16,4,20,0.08
2013-12-3,36,34,32,33,31,29,90,88,86,29.80,29.59,11,2,12,0.01
2013-12-4,32,26,11,29,23,6,88,86,80,29.79,29.51,20,4,24,0.00
2013-12-5,11,4,-4,6,-1,-9,85,79,74,30.44,29.76,18,5,19,0.00
2013-12-6,2,-5,-12,-5,-10,-16,82,79,74,30.77,30.43,12,2,13,0.00
2013-12-7,-1,-10,-17,-8,-14,-21,82,79,70,30.85,30.69,13,1,15,0.00
2013-12-8,12,6,-8,7,2,-12,86,83,80,30.69,30.12,9,1,10,0.01
2013-12-9,9,-1,-6,6,-6,-11,86,80,73,30.21,29.94,17,4,17,0.00
2013-12-10,14,8,3,10,3,-4,86,79,71,30.39,29.85,19,5,19,0.00
2013-12-11,3,-5,-12,-4,-10,-16,82,76,71,30.67,30.39,14,4,15,0.00
2013-12-12,18,11,1,13,6,-4,92,81,73,30.40,30.21,12,1,12,0.00
2013-12-13,15,12,10,10,8,6,85,80,76,30.36,30.19,19,5,20,0.00
2013-12-14,13,8,-1,8,4,-7,86,81,76,30.35,30.17,18,3,18,0.00
2013-12-15,2,0,-2,-4,-7,-8,78,72,63,30.26,30.19,14,2,15,0.00
2013-12-16,26,10,2,21,6,-4,88,82,73,30.21,29.98,16,3,20,0.00
2013-12-17,33,22,3,28,16,0,96,78,64,30.16,29.95,24,5,27,0.00
2013-12-18,34,23,3,27,18,-1,86,80,71,30.11,29.70,19,2,21,0.00
2013-12-19,27,17,14,22,12,8,92,80,73,30.12,29.86,20,7,22,0.00
2013-12-20,18,15,10,13,11,7,85,84,80,30.10,29.92,16,2,16,0.00
2013-12-21,20,17,15,15,13,11,85,83,78,30.07,29.92,15,3,17,0.00
2013-12-22,15,11,1,12,7,-4,92,83,80,30.34,30.02,14,4,16,0.00
2013-12-23,1,-5,-15,-4,-11,-20,82,76,71,30.63,30.33,16,3,17,0.00
2013-12-24,11,-3,-19,7,-8,-23,89,77,61,30.61,30.22,19,4,21,0.00
2013-12-25,28,18,10,24,13,7,86,83,64,30.23,30.12,19,2,22,0.00
2013-12-26,27,19,7,23,15,3,87,85,84,30.22,30.11,1,0,3,0.00
2013-12-27,39,28,8,32,24,5,88,84,75,30.22,29.94,18,3,23,0.04
2013-12-28,42,29,16,33,24,12,92,84,69,30.08,29.66,28,4,30,0.08
2013-12-29,16,-3,-18,11,-11,-23,83,70,57,30.41,30.08,26,5,30,0.00
2013-12-30,3,-6,-19,-1,-11,-24,85,81,78,30.41,30.28,9,1,12,0.00
2013-12-31,-2,-7,-14,-6,-12,-18,92,78,70,30.54,30.32,10,2,11,0.00
2014-1-1,0,-4,-9,-7,-10,-15,74,72,69,30.60,30.51,11,4,13,0.00
2014-1-2,0,-7,-16,-8,-14,-21,92,70,53,30.63,30.48,13,2,13,0.00